Time;durP1;ratioP1;P1;durP2;ratioP2;P2;SDS_P1;SDS_P2;PMS_P1;PMS_P2;Temp;Humidity;BMP_temperature;BMP_pressure;BME280_temperature;BME280_humidity;BME280_pressure;Samples;Min_cycle;Max_cycle;Signal;HPM_P1;HPM_P2
2023/03/31 00:00:32;;;;;;;4.93;3.25;;;;;;;2.66;67.30;98853.25;5098979;28;20062;-41
2023/03/31 00:02:58;;;;;;;6.47;3.05;;;;;;;2.49;67.38;98818.44;5086776;28;20134;-44
2023/03/31 00:05:25;;;;;;;5.78;2.80;;;;;;;2.66;67.33;98851.53;5081050;28;20040;-41
2023/03/31 00:07:59;;;;;;;4.32;2.60;;;;;;;2.65;66.99;98849.84;5070789;28;20040;-49
2023/03/31 00:10:33;;;;;;;3.70;2.63;;;;;;;2.60;67.20;98856.75;5083072;28;20039;-41
2023/03/31 00:13:00;;;;;;;4.97;2.67;;;;;;;2.58;66.94;98860.22;5086607;28;20031;-42
2023/03/31 00:15:27;;;;;;;3.25;2.13;;;;;;;2.58;67.14;98860.22;5051434;28;20041;-40
2023/03/31 00:17:53;;;;;;;3.28;2.25;;;;;;;2.31;66.72;98808.47;5066517;28;20047;-42
2023/03/31 00:20:19;;;;;;;3.03;2.47;;;;;;;2.44;66.81;98835.63;5077993;28;20048;-41
2023/03/31 00:22:47;;;;;;;4.43;2.70;;;;;;;2.50;66.83;98850.09;5087458;28;20040;-41
2023/03/31 00:25:14;;;;;;;3.85;2.50;;;;;;;2.51;67.15;98850.03;5065258;28;20058;-40
2023/03/31 00:27:43;;;;;;;4.32;2.75;;;;;;;2.53;67.06;98858.56;5078961;28;20043;-40
2023/03/31 00:30:11;;;;;;;4.47;2.55;;;;;;;2.54;66.93;98851.72;5082853;28;20048;-41
2023/03/31 00:32:37;;;;;;;3.88;2.50;;;;;;;2.50;66.92;98856.06;5068003;28;20252;-42
2023/03/31 00:35:04;;;;;;;3.28;2.47;;;;;;;2.26;67.32;98814.53;5068005;28;20055;-41
2023/03/31 00:37:30;;;;;;;3.90;2.75;;;;;;;2.38;67.23;98834.88;5081511;28;20036;-41
2023/03/31 00:39:56;;;;;;;5.10;2.65;;;;;;;2.40;67.23;98849.38;5080005;28;20036;-41
2023/03/31 00:42:22;;;;;;;3.78;2.50;;;;;;;2.42;67.37;98855.31;5066459;28;20424;-42
2023/03/31 00:45:12;;;;;;;4.10;2.78;;;;;;;2.42;67.35;98846.78;5072259;28;20047;-41
2023/03/31 00:47:40;;;;;;;3.85;2.70;;;;;;;2.43;67.49;98849.31;5072001;28;20135;-41
2023/03/31 00:50:14;;;;;;;4.63;2.60;;;;;;;2.42;67.64;98846.78;5073264;28;20070;-41
2023/03/31 00:52:40;;;;;;;4.90;2.40;;;;;;;2.40;67.48;98840.84;5069341;28;20031;-41
2023/03/31 00:55:11;;;;;;;3.35;2.33;;;;;;;2.36;67.52;98842.56;5073725;28;20041;-42
2023/03/31 00:57:40;;;;;;;3.55;2.50;;;;;;;2.35;67.46;98838.34;5051744;28;20037;-41
2023/03/31 01:00:18;;;;;;;4.53;2.60;;;;;;;2.35;67.86;98833.22;5084288;28;20048;-42
2023/03/31 01:02:54;;;;;;;3.92;2.58;;;;;;;2.35;67.69;98837.50;5066515;28;20165;-41
2023/03/31 01:05:46;;;;;;;3.30;2.47;;;;;;;2.38;67.81;98840.84;5053686;28;20081;-40
2023/03/31 01:08:13;;;;;;;4.80;2.50;;;;;;;2.39;67.97;98836.56;5071707;28;20048;-41
2023/03/31 01:10:42;;;;;;;3.55;2.45;;;;;;;2.16;67.76;98800.16;5085784;28;20071;-41
2023/03/31 01:13:12;;;;;;;8.80;2.65;;;;;;;2.36;67.98;98832.31;5081419;28;20032;-41
2023/03/31 01:15:38;;;;;;;3.78;2.58;;;;;;;2.37;68.04;98835.72;5084281;28;20048;-41
2023/03/31 01:18:05;;;;;;;9.20;2.78;;;;;;;2.34;68.22;98823.81;5071496;28;20036;-42
2023/03/31 01:21:02;;;;;;;3.55;2.47;;;;;;;2.38;68.23;98817.75;5068690;28;20543;-41
2023/03/31 01:23:51;;;;;;;3.63;2.63;;;;;;;2.37;67.98;98813.50;5083465;28;20074;-41
2023/03/31 01:26:42;;;;;;;3.80;2.47;;;;;;;2.33;68.18;98809.28;5056407;28;20520;-42
2023/03/31 01:29:18;;;;;;;4.10;2.35;;;;;;;2.31;68.34;98811.03;5074656;28;20069;-40
2023/03/31 01:32:02;;;;;;;3.90;2.65;;;;;;;2.06;68.45;98771.25;5099963;27;20044;-41
2023/03/31 01:34:55;;;;;;;4.78;2.63;;;;;;;2.26;68.59;98805.13;5047171;28;20079;-41
2023/03/31 01:37:28;;;;;;;6.43;2.67;;;;;;;2.24;68.69;98806.88;5084036;28;20058;-41
2023/03/31 01:40:18;;;;;;;3.42;2.60;;;;;;;2.22;68.53;98797.50;5077764;28;20044;-40
2023/03/31 01:43:14;;;;;;;3.78;2.20;;;;;;;2.16;69.09;98806.13;5086687;28;20138;-41
2023/03/31 01:46:31;;;;;;;4.50;3.00;;;;;;;2.07;68.99;98796.88;5070010;28;20182;-41
2023/03/31 01:49:22;;;;;;;3.30;2.53;;;;;;;2.02;69.38;98796.09;5041250;28;20048;-41
2023/03/31 01:52:27;;;;;;;4.70;2.47;;;;;;;1.95;69.15;98799.59;5066644;28;20201;-42
2023/03/31 01:55:07;;;;;;;3.20;2.10;;;;;;;1.86;69.38;98802.28;5075675;28;20048;-41
2023/03/31 01:57:38;;;;;;;3.08;2.03;;;;;;;1.87;69.45;98800.59;5064924;28;20076;-41
2023/03/31 02:00:13;;;;;;;5.85;1.92;;;;;;;1.89;69.27;98801.38;5101072;27;20036;-42
2023/03/31 02:02:50;;;;;;;3.40;1.90;;;;;;;1.85;69.18;98795.47;5073254;28;20079;-40
2023/03/31 02:05:19;;;;;;;3.10;2.08;;;;;;;1.87;69.20;98787.78;5080937;28;20086;-42
2023/03/31 02:07:50;;;;;;;3.55;2.20;;;;;;;1.85;69.28;98786.94;5106749;27;20043;-41
2023/03/31 02:10:17;;;;;;;4.85;2.30;;;;;;;1.80;69.31;98778.47;5053691;28;20121;-40
2023/03/31 02:12:44;;;;;;;3.92;1.98;;;;;;;1.70;69.31;98783.72;5091253;28;20039;-40
2023/03/31 02:15:14;;;;;;;2.28;1.50;;;;;;;1.55;69.60;98775.38;5084082;28;20036;-41
2023/03/31 02:17:44;;;;;;;4.53;2.13;;;;;;;1.37;70.16;98755.97;5073478;28;20105;-42
2023/03/31 02:20:14;;;;;;;3.85;2.20;;;;;;;1.45;69.86;98774.66;5082306;28;20040;-42
2023/03/31 02:22:42;;;;;;;6.10;2.92;;;;;;;1.37;70.44;98776.44;5076146;28;20043;-42
2023/03/31 02:25:11;;;;;;;4.35;2.10;;;;;;;1.30;70.53;98782.53;5034041;28;20434;-41
2023/03/31 02:27:43;;;;;;;3.78;2.28;;;;;;;1.15;70.81;98783.53;5088849;28;20059;-41
2023/03/31 02:30:11;;;;;;;3.63;2.20;;;;;;;1.08;70.89;98781.94;5053543;28;20047;-41
2023/03/31 02:32:40;;;;;;;3.70;2.40;;;;;;;0.98;71.23;98789.72;5063436;28;20028;-40
2023/03/31 02:35:09;;;;;;;5.30;2.92;;;;;;;0.90;71.35;98789.78;5089427;28;20043;-42
2023/03/31 02:37:35;;;;;;;5.05;2.30;;;;;;;0.81;71.87;98782.22;5071106;28;20044;-40
2023/03/31 02:40:09;;;;;;;3.15;2.15;;;;;;;0.71;71.78;98791.69;5071168;28;20051;-41
2023/03/31 02:42:38;;;;;;;3.95;2.15;;;;;;;0.65;71.94;98791.72;5040669;28;20062;-41
2023/03/31 02:45:26;;;;;;;4.38;2.28;;;;;;;0.61;72.46;98791.78;5077953;28;20441;-40
2023/03/31 02:47:52;;;;;;;3.30;2.40;;;;;;;0.59;72.75;98788.38;5103423;27;20587;-42
2023/03/31 02:50:22;;;;;;;5.68;2.47;;;;;;;0.36;72.51;98756.22;5076835;28;20043;-41
2023/03/31 02:53:10;;;;;;;3.20;2.38;;;;;;;0.54;72.61;98788.41;5075757;28;20458;-41
2023/03/31 02:55:56;;;;;;;4.53;2.90;;;;;;;0.33;72.61;98766.44;5074848;28;20042;-41
2023/03/31 02:58:51;;;;;;;4.13;2.45;;;;;;;0.44;72.86;98786.81;5037153;28;20548;-42
2023/03/31 03:01:33;;;;;;;4.70;2.50;;;;;;;0.41;73.72;98781.72;5092443;27;20119;-41
2023/03/31 03:04:01;;;;;;;5.13;3.03;;;;;;;0.35;73.91;98785.19;5073478;28;20503;-42
2023/03/31 03:07:08;;;;;;;3.13;2.15;;;;;;;0.27;73.93;98789.50;5068943;28;20089;-41
2023/03/31 03:10:00;;;;;;;4.78;2.47;;;;;;;0.23;74.00;98799.75;5076028;28;20079;-41
2023/03/31 03:12:44;;;;;;;4.07;2.60;;;;;;;0.17;74.43;98792.13;5073354;28;20048;-40
2023/03/31 03:15:13;;;;;;;4.15;2.45;;;;;;;0.15;74.71;98789.59;5070410;28;20093;-43
2023/03/31 03:17:42;;;;;;;4.65;2.60;;;;;;;0.14;75.14;98793.00;5103823;28;20051;-40
2023/03/31 03:20:10;;;;;;;3.55;2.20;;;;;;;-0.04;74.97;98765.00;5077338;28;20071;-41
2023/03/31 03:22:37;;;;;;;4.63;2.10;;;;;;;-0.01;75.23;98772.69;5074590;28;20585;-40
2023/03/31 03:25:10;;;;;;;6.13;2.55;;;;;;;0.12;75.35;98794.72;5068605;28;20094;-42
2023/03/31 03:27:37;;;;;;;4.38;2.55;;;;;;;0.14;75.67;98800.69;5053606;28;20047;-40
2023/03/31 03:30:05;;;;;;;5.15;2.70;;;;;;;-0.14;75.47;98751.47;5068889;28;20036;-42
2023/03/31 03:32:32;;;;;;;3.95;2.30;;;;;;;0.04;75.49;98770.94;5072332;28;20723;-41
2023/03/31 03:34:59;;;;;;;4.50;2.58;;;;;;;0.27;75.42;98793.75;5099436;28;20456;-41
2023/03/31 03:37:25;;;;;;;3.40;2.10;;;;;;;0.24;75.21;98756.31;5075812;28;20059;-41
2023/03/31 03:39:51;;;;;;;4.40;2.28;;;;;;;0.52;75.33;98774.81;5062942;28;20036;-41
2023/03/31 03:42:17;;;;;;;6.20;2.63;;;;;;;0.63;74.85;98777.28;5069065;28;20040;-42
2023/03/31 03:44:43;;;;;;;2.88;2.05;;;;;;;0.71;74.81;98773.78;5068025;28;20129;-42
2023/03/31 03:47:09;;;;;;;3.88;2.35;;;;;;;0.83;74.58;98775.38;5088155;28;20093;-41
2023/03/31 03:49:35;;;;;;;3.95;2.15;;;;;;;0.99;74.22;98761.56;5085986;28;20047;-40
2023/03/31 03:52:01;;;;;;;8.68;2.55;;;;;;;1.10;74.01;98756.31;5074830;28;20115;-41
2023/03/31 03:54:27;;;;;;;3.28;2.22;;;;;;;1.07;73.91;98741.84;5073250;28;20047;-43
2023/03/31 03:56:53;;;;;;;4.00;2.38;;;;;;;1.30;73.45;98759.50;5097038;28;20044;-43
2023/03/31 03:59:18;;;;;;;5.75;2.30;;;;;;;1.26;73.52;98730.50;5089813;28;20145;-41
2023/03/31 04:01:44;;;;;;;4.30;2.50;;;;;;;1.39;73.69;98736.31;5085421;28;20044;-42
2023/03/31 04:04:10;;;;;;;5.25;2.60;;;;;;;1.49;73.19;98737.03;5076197;28;20048;-41
2023/03/31 04:06:36;;;;;;;10.27;3.42;;;;;;;1.36;73.11;98705.63;5072287;28;20088;-41
2023/03/31 04:09:03;;;;;;;8.48;2.90;;;;;;;1.47;72.97;98703.75;5087156;28;20114;-41
2023/03/31 04:11:28;;;;;;;4.30;2.55;;;;;;;1.44;72.97;98697.84;5095965;28;20128;-41
2023/03/31 04:13:54;;;;;;;5.75;2.80;;;;;;;1.62;72.86;98734.28;5086216;28;20469;-41
2023/03/31 04:16:21;;;;;;;4.65;2.95;;;;;;;1.55;72.71;98701.13;5080804;28;20063;-43
2023/03/31 04:18:48;;;;;;;5.13;2.83;;;;;;;1.74;72.53;98719.63;5072955;28;20102;-41
2023/03/31 04:21:21;;;;;;;5.53;2.83;;;;;;;1.78;72.43;98726.41;5083492;28;20035;-42
2023/03/31 04:23:48;;;;;;;6.55;3.00;;;;;;;1.84;72.10;98727.16;5086838;28;20105;-43
2023/03/31 04:26:16;;;;;;;8.80;2.70;;;;;;;1.85;71.83;98735.69;5063749;28;20044;-40
2023/03/31 04:28:45;;;;;;;11.57;3.67;;;;;;;1.85;71.99;98718.59;5084574;28;20507;-41
2023/03/31 04:31:15;;;;;;;7.38;2.92;;;;;;;1.88;72.03;98718.56;5074434;28;20499;-41
2023/03/31 04:33:45;;;;;;;8.57;3.58;;;;;;;1.64;71.95;98675.34;5073569;28;20044;-41
2023/03/31 04:36:16;;;;;;;;;;;;;;;1.96;71.67;98715.88;5064989;28;20043;-43
2023/03/31 04:38:46;;;;;;;5.30;2.67;;;;;;;1.95;71.58;98702.19;5083357;28;20411;-41
2023/03/31 04:41:13;;;;;;;5.13;2.70;;;;;;;1.93;71.48;98706.53;5084980;28;20048;-41
2023/03/31 04:43:39;;;;;;;3.97;2.80;;;;;;;1.99;71.38;98713.28;5081978;28;20554;-44
2023/03/31 04:46:05;;;;;;;7.43;2.53;;;;;;;2.06;71.42;98707.16;5074419;28;20073;-40
2023/03/31 04:48:31;;;;;;;4.13;2.80;;;;;;;1.96;71.11;98685.13;5066947;28;20109;-41
2023/03/31 04:50:57;;;;;;;5.75;2.85;;;;;;;2.04;70.77;98675.59;5085956;28;20043;-42
2023/03/31 04:53:24;;;;;;;4.50;2.40;;;;;;;2.31;70.62;98697.34;5084608;28;20048;-41
2023/03/31 04:55:51;;;;;;;11.52;3.15;;;;;;;2.35;70.28;98692.16;5050594;28;20040;-40
2023/03/31 04:58:17;;;;;;;15.32;3.20;;;;;;;2.35;70.16;98694.72;5088234;28;20055;-42
2023/03/31 05:00:43;;;;;;;5.72;2.75;;;;;;;2.04;70.47;98655.91;5070080;28;20123;-42
2023/03/31 05:03:09;;;;;;;13.23;2.83;;;;;;;2.17;70.22;98671.94;5084039;28;20047;-42
2023/03/31 05:05:36;;;;;;;9.05;3.08;;;;;;;2.28;70.45;98687.16;5053651;28;20055;-42
2023/03/31 05:08:03;;;;;;;13.32;3.10;;;;;;;2.28;70.27;98687.16;5053829;28;21823;-41
2023/03/31 05:10:30;;;;;;;16.35;2.97;;;;;;;2.12;70.28;98661.78;5083756;28;20173;-42
2023/03/31 05:12:56;;;;;;;8.57;2.63;;;;;;;2.37;70.21;98689.53;5053575;28;20478;-43
2023/03/31 05:15:25;;;;;;;7.05;2.67;;;;;;;2.51;70.04;98693.56;5087000;28;20066;-44
2023/03/31 05:17:52;;;;;;;7.72;3.35;;;;;;;2.65;69.62;98685.63;5086453;28;20044;-43
2023/03/31 05:20:19;;;;;;;4.13;2.90;;;;;;;2.70;69.11;98690.66;5077139;28;20074;-43
2023/03/31 05:22:45;;;;;;;6.18;3.10;;;;;;;2.71;69.00;98688.06;5049457;28;20496;-41
2023/03/31 05:25:17;;;;;;;10.45;3.88;;;;;;;2.75;68.83;98705.09;5060484;28;20077;-45
2023/03/31 05:27:46;;;;;;;6.43;3.97;;;;;;;2.86;68.67;98704.91;5081969;28;20577;-42
2023/03/31 05:30:13;;;;;;;4.83;2.57;;;;;;;2.98;67.81;98691.84;5072210;28;20032;-41
2023/03/31 05:32:39;;;;;;;5.07;2.90;;;;;;;2.99;67.80;98698.63;5070535;28;20415;-44
2023/03/31 05:35:06;;;;;;;5.75;2.88;;;;;;;3.04;67.70;98698.53;5067040;28;20057;-43
2023/03/31 05:37:32;;;;;;;4.10;2.65;;;;;;;3.03;67.53;98705.44;5080895;28;20495;-42
2023/03/31 05:39:58;;;;;;;3.90;2.42;;;;;;;2.88;67.75;98675.75;5039478;28;20089;-42
2023/03/31 05:42:25;;;;;;;6.22;2.30;;;;;;;3.07;67.22;98698.50;5100934;28;20491;-43
2023/03/31 05:44:51;;;;;;;7.03;3.05;;;;;;;3.18;67.42;98692.28;5052490;28;20048;-42
2023/03/31 05:47:17;;;;;;;6.05;3.30;;;;;;;3.32;67.20;98702.25;5080570;28;20482;-41
2023/03/31 05:49:43;;;;;;;9.05;2.90;;;;;;;3.27;67.15;98674.09;5082404;28;20035;-43
2023/03/31 05:52:10;;;;;;;5.30;3.15;;;;;;;3.50;67.08;98698.47;5066951;28;20050;-41
2023/03/31 05:54:36;;;;;;;4.30;2.72;;;;;;;3.63;66.79;98703.28;5053501;28;20048;-41
2023/03/31 05:57:02;;;;;;;5.35;3.70;;;;;;;3.57;66.81;98685.41;5050094;28;20155;-41
2023/03/31 05:59:28;;;;;;;5.50;3.65;;;;;;;3.83;66.44;98701.09;5074420;28;20134;-42
2023/03/31 06:01:54;;;;;;;8.50;4.28;;;;;;;3.96;66.22;98683.66;5086456;28;20048;-41
2023/03/31 06:04:20;;;;;;;10.70;3.70;;;;;;;4.21;66.14;98673.63;5077476;28;20028;-40
2023/03/31 06:06:49;;;;;;;6.28;3.25;;;;;;;4.37;65.07;98641.47;5069181;28;20040;-41
2023/03/31 06:09:16;;;;;;;8.87;3.83;;;;;;;4.73;64.55;98673.09;5079139;28;20058;-42
2023/03/31 06:11:42;;;;;;;6.47;3.15;;;;;;;4.56;64.43;98637.53;5084143;28;20134;-41
2023/03/31 06:14:08;;;;;;;10.25;3.30;;;;;;;4.67;64.52;98673.28;5065944;28;20135;-41
2023/03/31 06:16:35;;;;;;;7.68;3.50;;;;;;;4.42;64.06;98643.94;5087302;28;20107;-40
2023/03/31 06:19:00;;;;;;;5.68;3.28;;;;;;;4.41;63.81;98658.53;5070240;28;20123;-41
2023/03/31 06:21:26;;;;;;;8.55;3.55;;;;;;;4.37;64.43;98666.34;5072107;28;20139;-40
2023/03/31 06:23:54;;;;;;;18.50;3.60;;;;;;;4.14;64.47;98633.50;5078946;28;20111;-41
2023/03/31 06:26:21;;;;;;;13.20;4.05;;;;;;;4.03;64.35;98622.66;5068106;28;20138;-41
2023/03/31 06:28:47;;;;;;;8.25;2.97;;;;;;;4.20;64.47;98675.34;5081920;28;20236;-40
2023/03/31 06:31:16;;;;;;;7.63;3.60;;;;;;;4.02;64.08;98649.25;5070245;28;20037;-41
2023/03/31 06:33:42;;;;;;;9.63;3.30;;;;;;;4.18;64.58;98669.41;5066751;28;20051;-40
2023/03/31 06:36:10;;;;;;;5.18;2.85;;;;;;;4.23;64.57;98679.59;5098800;28;20125;-40
2023/03/31 06:38:37;;;;;;;12.27;3.22;;;;;;;4.17;63.80;98641.16;5067093;28;20052;-41
2023/03/31 06:41:04;;;;;;;7.25;3.60;;;;;;;4.44;63.50;98673.06;5072061;28;20094;-41
2023/03/31 06:43:30;;;;;;;7.38;3.90;;;;;;;4.50;63.45;98683.19;5066769;28;20056;-41
2023/03/31 06:45:55;;;;;;;6.72;3.33;;;;;;;4.53;63.11;98683.94;5069676;28;20052;-40
2023/03/31 06:48:23;;;;;;;5.65;3.40;;;;;;;4.46;63.26;98660.97;5075300;28;20047;-41
2023/03/31 06:50:50;;;;;;;5.57;3.60;;;;;;;4.53;63.19;98675.38;5051749;28;20113;-40
2023/03/31 06:53:16;;;;;;;6.78;3.08;;;;;;;4.59;63.44;98657.19;5077332;28;20083;-40
2023/03/31 06:55:42;;;;;;;5.45;3.03;;;;;;;4.61;62.79;98663.13;5073433;28;20066;-42
2023/03/31 06:58:08;;;;;;;8.55;2.88;;;;;;;4.60;62.59;98661.47;5081678;28;20044;-40
2023/03/31 07:00:34;;;;;;;4.13;2.42;;;;;;;4.62;62.64;98651.97;5085124;28;20179;-42
2023/03/31 07:03:00;;;;;;;5.88;2.30;;;;;;;4.47;62.14;98630.06;5086701;28;20685;-40
2023/03/31 07:05:27;;;;;;;6.95;2.47;;;;;;;4.63;62.40;98653.66;5079704;28;20542;-40
2023/03/31 07:07:54;;;;;;;4.55;2.30;;;;;;;4.68;62.56;98656.94;5073778;28;20072;-41
2023/03/31 07:10:21;;;;;;;5.10;2.58;;;;;;;4.66;61.89;98626.09;5078032;28;20036;-41
2023/03/31 07:12:48;;;;;;;6.65;2.78;;;;;;;4.87;61.99;98645.25;5068758;28;20071;-40
2023/03/31 07:15:14;;;;;;;6.68;2.60;;;;;;;5.06;61.35;98654.16;5083445;28;20115;-42
2023/03/31 07:17:40;;;;;;;5.60;2.65;;;;;;;5.11;61.43;98649.72;5071551;28;20044;-42
2023/03/31 07:20:14;;;;;;;4.88;3.00;;;;;;;5.16;61.70;98644.44;5074394;28;20043;-42
2023/03/31 07:22:41;;;;;;;7.03;3.67;;;;;;;5.24;61.34;98654.50;5080954;28;20036;-40
2023/03/31 07:25:13;;;;;;;9.30;2.80;;;;;;;5.30;61.32;98649.16;5055626;28;20085;-46
2023/03/31 07:27:39;;;;;;;5.60;3.22;;;;;;;5.35;61.28;98644.72;5078169;28;20174;-39
2023/03/31 07:30:07;;;;;;;5.88;3.60;;;;;;;5.40;60.56;98653.16;5051437;28;20044;-42
2023/03/31 07:32:38;;;;;;;5.65;3.28;;;;;;;5.46;61.16;98638.34;5085015;28;20037;-42
2023/03/31 07:35:04;;;;;;;9.25;3.70;;;;;;;5.59;60.37;98643.13;5072945;28;20389;-42
2023/03/31 07:37:41;;;;;;;8.93;3.78;;;;;;;5.69;60.62;98637.66;5088462;28;20036;-40
2023/03/31 07:40:09;;;;;;;5.85;3.45;;;;;;;5.79;59.88;98631.31;5101238;28;20131;-40
2023/03/31 07:42:35;;;;;;;13.13;3.00;;;;;;;5.89;59.65;98637.03;5086149;28;20052;-41
2023/03/31 07:45:05;;;;;;;8.02;2.80;;;;;;;5.99;58.96;98641.00;5103334;28;20515;-41
2023/03/31 07:47:31;;;;;;;8.90;3.50;;;;;;;6.03;59.08;98645.16;5070542;28;20044;-42
2023/03/31 07:49:57;;;;;;;10.30;4.10;;;;;;;6.12;58.95;98647.47;5061522;28;20036;-41
2023/03/31 07:52:23;;;;;;;4.47;3.13;;;;;;;6.17;58.84;98650.75;5054814;28;20039;-40
2023/03/31 07:54:50;;;;;;;12.07;3.60;;;;;;;6.20;58.79;98647.19;5068253;28;20036;-41
2023/03/31 07:57:18;;;;;;;8.45;3.28;;;;;;;6.24;58.60;98635.88;5088625;28;20048;-41
2023/03/31 07:59:45;;;;;;;12.97;3.27;;;;;;;6.33;58.74;98638.97;5081860;28;20047;-42
2023/03/31 08:02:13;;;;;;;8.80;3.53;;;;;;;6.40;58.73;98642.19;5071473;28;20036;-42
2023/03/31 08:04:41;;;;;;;7.22;2.78;;;;;;;6.51;58.66;98645.25;5028461;28;20048;-43
2023/03/31 08:07:08;;;;;;;7.28;4.38;;;;;;;6.44;58.14;98615.38;5080126;28;20039;-42
2023/03/31 08:09:34;;;;;;;12.13;3.67;;;;;;;6.60;57.52;98634.59;5078132;28;20154;-41
2023/03/31 08:11:59;;;;;;;6.68;3.20;;;;;;;6.69;57.81;98636.88;5085814;28;20040;-41
2023/03/31 08:14:25;;;;;;;4.43;2.60;;;;;;;6.74;57.53;98628.97;5090029;27;20115;-41
2023/03/31 08:16:54;;;;;;;4.57;2.83;;;;;;;6.75;57.05;98615.97;5069159;28;20510;-41
2023/03/31 08:19:21;;;;;;;6.97;2.63;;;;;;;6.70;57.30;98609.28;5081279;28;20072;-42
2023/03/31 08:21:47;;;;;;;7.25;2.83;;;;;;;6.75;57.03;98618.56;5102553;28;20062;-41
2023/03/31 08:24:13;;;;;;;7.93;3.30;;;;;;;6.83;57.08;98610.53;5084467;28;20035;-41
2023/03/31 08:26:40;;;;;;;9.55;3.72;;;;;;;6.87;56.94;98599.19;5075575;28;20107;-42
2023/03/31 08:29:06;;;;;;;10.60;3.80;;;;;;;6.93;56.29;98598.13;5067873;28;20040;-43
2023/03/31 08:31:32;;;;;;;9.93;2.75;;;;;;;6.91;56.58;98605.13;5095158;28;20043;-42
2023/03/31 08:33:58;;;;;;;7.22;2.70;;;;;;;6.81;56.29;98586.50;5046983;28;20040;-42
2023/03/31 08:36:25;;;;;;;4.60;3.03;;;;;;;6.86;56.26;98602.69;5073279;28;20040;-41
2023/03/31 08:38:52;;;;;;;4.20;2.92;;;;;;;6.82;56.24;98593.34;5079365;28;20264;-41
2023/03/31 08:41:31;;;;;;;4.60;2.60;;;;;;;6.76;56.55;98601.31;5057533;28;20134;-40
2023/03/31 08:44:00;;;;;;;13.05;3.38;;;;;;;6.78;56.78;98589.22;5084440;28;20511;-41
2023/03/31 08:46:27;;;;;;;5.28;2.88;;;;;;;6.89;56.67;98588.81;5078405;28;20047;-41
2023/03/31 08:48:57;;;;;;;12.55;4.00;;;;;;;6.91;56.11;98582.69;5093458;27;20044;-40
2023/03/31 08:51:29;;;;;;;9.70;3.58;;;;;;;6.99;56.29;98567.75;5070601;28;20090;-41
2023/03/31 08:54:14;;;;;;;11.50;3.97;;;;;;;7.08;55.75;98562.22;5073138;28;20081;-39
2023/03/31 08:56:43;;;;;;;11.27;4.50;;;;;;;7.19;55.98;98567.81;5063844;28;20055;-40
2023/03/31 08:59:17;;;;;;;11.88;3.00;;;;;;;7.27;55.55;98548.59;5064216;28;20067;-40
2023/03/31 09:02:02;;;;;;;5.65;2.15;;;;;;;7.38;55.10;98554.19;5078290;28;20090;-40
2023/03/31 09:04:43;;;;;;;21.13;4.03;;;;;;;7.52;54.90;98551.91;5075724;28;20428;-40
2023/03/31 09:07:25;;;;;;;6.22;2.80;;;;;;;7.56;54.82;98556.03;5065107;28;20592;-39
2023/03/31 09:10:12;;;;;;;8.30;3.25;;;;;;;7.55;54.77;98552.59;5072551;28;20600;-39
2023/03/31 09:12:55;;;;;;;7.53;2.90;;;;;;;7.53;54.69;98551.00;5071510;28;20048;-39
2023/03/31 09:15:41;;;;;;;9.60;2.65;;;;;;;7.55;54.44;98549.19;5080467;28;20689;-41
2023/03/31 09:18:26;;;;;;;8.07;2.08;;;;;;;7.60;54.75;98542.06;5070172;28;20512;-38
2023/03/31 09:20:57;;;;;;;5.90;1.95;;;;;;;7.63;54.39;98544.56;5084851;28;20124;-40
2023/03/31 09:23:48;;;;;;;5.45;2.30;;;;;;;7.49;54.28;98521.81;5048734;28;20077;-40
2023/03/31 09:26:25;;;;;;;10.73;2.75;;;;;;;7.72;54.42;98536.41;5043810;28;20118;-40
2023/03/31 09:28:53;;;;;;;11.80;3.25;;;;;;;7.78;54.33;98538.75;5081661;28;20036;-40
2023/03/31 09:31:19;;;;;;;9.25;2.67;;;;;;;7.73;53.72;98508.78;5086214;28;20058;-39
2023/03/31 09:33:47;;;;;;;6.93;2.53;;;;;;;7.94;53.70;98526.84;5089138;28;20032;-40
2023/03/31 09:36:18;;;;;;;7.68;2.65;;;;;;;8.04;53.64;98522.97;5094522;27;20088;-41
2023/03/31 09:38:45;;;;;;;17.58;3.17;;;;;;;8.11;53.78;98513.19;5065390;28;20502;-50
2023/03/31 09:41:12;;;;;;;6.15;2.70;;;;;;;8.14;53.23;98507.88;5076233;28;20043;-41
2023/03/31 09:43:39;;;;;;;10.63;3.28;;;;;;;8.13;53.56;98497.59;5076005;28;20202;-41
2023/03/31 09:46:35;;;;;;;17.30;3.50;;;;;;;8.11;53.35;98497.66;5074419;28;20047;-41
2023/03/31 09:49:13;;;;;;;14.38;2.85;;;;;;;7.92;53.48;98468.28;5078037;28;20059;-41
2023/03/31 09:51:44;;;;;;;8.80;2.80;;;;;;;8.05;53.50;98493.59;5072244;28;20463;-42
2023/03/31 09:54:36;;;;;;;8.23;2.97;;;;;;;8.04;53.25;98481.56;5058751;28;20032;-40
2023/03/31 09:57:11;;;;;;;17.48;3.45;;;;;;;8.18;52.89;98470.59;5068341;28;20531;-41
2023/03/31 09:59:37;;;;;;;3.75;2.22;;;;;;;8.36;52.77;98474.16;5069548;28;20032;-39
2023/03/31 10:02:16;;;;;;;5.25;2.42;;;;;;;8.36;52.47;98445.66;5069430;28;20130;-40
2023/03/31 10:04:45;;;;;;;7.28;2.75;;;;;;;8.60;52.33;98473.03;5077299;28;20091;-41
2023/03/31 10:07:12;;;;;;;12.43;2.92;;;;;;;8.60;52.31;98473.03;5049019;28;20071;-40
2023/03/31 10:09:38;;;;;;;8.27;3.28;;;;;;;8.57;52.25;98469.75;5058265;28;20091;-40
2023/03/31 10:12:18;;;;;;;8.45;2.67;;;;;;;8.47;52.55;98465.00;5067548;28;20077;-41
2023/03/31 10:14:47;;;;;;;15.00;3.10;;;;;;;8.36;52.57;98472.41;5079221;28;20614;-39
2023/03/31 10:17:15;;;;;;;11.52;3.25;;;;;;;8.25;52.58;98460.81;5085216;28;20538;-41
2023/03/31 10:19:58;;;;;;;14.23;3.72;;;;;;;8.12;52.90;98449.31;5074580;28;20131;-40
2023/03/31 10:22:29;;;;;;;8.30;3.17;;;;;;;8.13;53.03;98462.19;5063071;28;20043;-41
2023/03/31 10:25:15;;;;;;;9.32;2.90;;;;;;;8.13;53.21;98454.41;5089857;28;20043;-40
2023/03/31 10:27:44;;;;;;;9.85;2.90;;;;;;;8.13;52.66;98457.00;5082727;28;20040;-39
2023/03/31 10:30:11;;;;;;;;;;;;;;;8.18;52.91;98460.22;5089161;28;20071;-40
2023/03/31 10:32:41;;;;;;;20.58;3.78;;;;;;;8.16;52.97;98456.91;5062118;28;19922;-40
2023/03/31 10:35:20;;;;;;;14.10;3.63;;;;;;;8.13;52.96;98453.56;5075298;28;20444;-40
2023/03/31 10:37:48;;;;;;;7.65;3.00;;;;;;;8.12;53.23;98454.47;5077842;28;20035;-39
2023/03/31 10:40:19;;;;;;;5.70;3.00;;;;;;;8.06;53.15;98446.06;5078417;28;20062;-41
2023/03/31 10:42:48;;;;;;;15.38;3.15;;;;;;;8.07;53.15;98447.75;5073907;28;20060;-40
2023/03/31 10:45:26;;;;;;;10.05;3.53;;;;;;;8.14;53.22;98437.16;5078325;28;20040;-39
2023/03/31 10:47:55;;;;;;;10.98;3.45;;;;;;;8.12;52.93;98442.38;5069902;28;20143;-40
2023/03/31 10:50:35;;;;;;;7.95;3.10;;;;;;;8.09;53.43;98429.59;5081537;28;20419;-39
2023/03/31 10:53:04;;;;;;;7.93;2.85;;;;;;;8.00;53.40;98422.25;5075117;28;20036;-41
2023/03/31 10:55:36;;;;;;;7.00;2.75;;;;;;;7.62;53.74;98362.66;5078664;28;20082;-41
2023/03/31 10:59:03;;;;;;;12.50;4.15;;;;;;;7.90;54.06;98414.00;5078350;28;20127;-42
2023/03/31 11:01:45;;;;;;;10.70;2.72;;;;;;;7.86;53.83;98399.53;5005409;28;20041;-40
2023/03/31 11:04:32;;;;;;;10.80;2.63;;;;;;;7.86;54.39;98398.69;4994568;28;20057;-40
2023/03/31 11:07:28;;;;;;;6.80;2.47;;;;;;;7.79;54.45;98392.97;4988705;28;20092;-39
2023/03/31 11:10:02;;;;;;;7.63;2.35;;;;;;;7.80;54.61;98404.97;5003129;28;20069;-39
2023/03/31 11:12:38;;;;;;;5.22;3.05;;;;;;;7.75;54.57;98406.91;5011978;28;20047;-38
2023/03/31 11:15:24;;;;;;;8.50;2.80;;;;;;;7.74;54.68;98410.44;5023201;28;20041;-41
2023/03/31 11:17:54;;;;;;;13.35;3.17;;;;;;;7.74;54.97;98407.00;5004075;28;20059;-41
2023/03/31 11:21:10;;;;;;;4.07;2.58;;;;;;;7.63;55.22;98397.97;4996084;28;20231;-40
2023/03/31 11:24:12;;;;;;;6.82;3.22;;;;;;;7.62;55.12;98401.44;5003387;28;20607;-41
2023/03/31 11:27:15;;;;;;;4.93;2.53;;;;;;;7.56;55.34;98400.88;5019490;28;20073;-40
2023/03/31 11:29:56;;;;;;;6.78;2.92;;;;;;;7.48;55.33;98384.84;5031382;28;20081;-41
2023/03/31 11:32:40;;;;;;;7.43;2.80;;;;;;;7.51;55.65;98388.13;5036541;28;20044;-40
2023/03/31 11:35:37;;;;;;;5.40;2.90;;;;;;;7.56;55.85;98388.78;5073758;28;20036;-40
2023/03/31 11:38:12;;;;;;;8.15;2.78;;;;;;;7.56;56.20;98377.59;5078492;28;20132;-41
2023/03/31 11:40:46;;;;;;;7.00;3.10;;;;;;;7.50;55.87;98385.59;5076965;28;20044;-42
2023/03/31 11:43:35;;;;;;;6.10;2.75;;;;;;;7.50;56.37;98385.59;5057469;28;20138;-39
2023/03/31 11:46:07;;;;;;;8.77;2.90;;;;;;;7.53;56.29;98377.75;5075592;28;20044;-40
2023/03/31 11:48:56;;;;;;;6.18;2.83;;;;;;;7.54;56.78;98377.66;5075602;28;20051;-40
2023/03/31 11:51:28;;;;;;;5.75;2.35;;;;;;;7.39;56.50;98349.03;5079397;28;20712;-39
2023/03/31 11:53:56;;;;;;;7.45;3.17;;;;;;;7.53;56.38;98368.25;5072934;28;20041;-39
2023/03/31 11:56:25;;;;;;;10.63;3.15;;;;;;;7.48;56.57;98361.59;5031016;28;20067;-40
2023/03/31 11:58:55;;;;;;;9.18;3.20;;;;;;;7.46;56.80;98371.97;5074025;28;20074;-40
2023/03/31 12:01:31;;;;;;;;;;;;;;;7.45;56.66;98366.88;5085464;28;20085;-41
2023/03/31 12:04:09;;;;;;;12.43;4.00;;;;;;;7.39;56.77;98351.63;5066978;28;20467;-41